• Join FlightAware (Why Join?)
  • Login
  • US Flag 
04:48PM EDT


 

Airport Tracker/Info


-or-


 

Live Flight TrackerFlight Track Log ✈ N918MJ ✈ 28-Jun-2013 ✈ KPWK - KATW

Flight Track Log - Related Links

Times and Time Zones

All times are in EDT time to prevent confusion due to time zone crossing. See the N918MJ flight status page for this flight to view local times or setup timezone preferences in your user account.

Time Position Orientation Groundspeed Altitude Reporting Facility
EDT Latitude Longitude Course Direction KTS MPH feet Rate Location/Type
10:51AM 42.1333 -87.9167 315° West 160 184 2,400  Level Chicago TRACON
10:52AM 42.1833 -87.9833 315° West 250 288 5,800 3,720 Climbing Chicago TRACON
10:53AM 42.2611 -88.0244 339° North 265 305 11,000 3,840 Climbing Chicago Center
10:54AM 42.3419 -88.0450 349° North 281 323 14,900 1,920 Climbing Chicago Center
10:55AM 42.4486 -88.0597 354° North 338 389 15,000 60 Climbing Chicago Center
10:56AM 42.5556 -88.0744 354° North 383 441 15,100  Climbing Chicago Center
10:57AM 42.6614 -88.0922 353° North 383 441 15,000 -60 Descending Chicago Center
10:58AM 42.7664 -88.1147 351° North 382 440 15,000  Level Chicago Center
10:59AM 42.8725 -88.1325 353° North 384 442 15,000  Level Chicago Center
11:00AM 42.9964 -88.1558 352° North 386 444 15,000  Level Chicago Center
11:01AM 43.1025 -88.1753 352° North 386 444 15,000 -480 Level Chicago Center
11:02AM 43.2086 -88.1961 352° North 386 444 14,100 -480 Descending Chicago Center
11:03AM 43.3147 -88.2142 353° North 387 445 14,100 -60 Level Chicago Center
11:04AM 43.4383 -88.2328 354° North 387 445 14,000 -480 Descending Chicago Center
11:05AM 43.5422 -88.2561 351° North 383 441 13,100 -1,200 Descending Chicago Center
11:06AM 43.6111 -88.3608 312° West 375 432 11,500 -1,500 Descending Chicago Center
11:08AM 43.6836 -88.4267 327° Northwest 316 364 10,100 -1,560 Descending Chicago Center
11:09AM 43.7581 -88.4903 328° Northwest 275 316 8,300 -1,800 Descending Chicago Center
11:10AM 43.8192 -88.5467 326° Northwest 268 308 6,400 -1,980 Descending Chicago Center
11:11AM 43.8792 -88.5992 328° Northwest 261 300 4,300 -1,260 Descending Chicago Center
11:12AM 43.9461 -88.6319 341° North 269 310 3,900 -240 Descending Chicago Center
11:13AM 44.0181 -88.6322 360° North 260 299 3,900 -420 Level Chicago Center
11:14AM 44.0850 -88.6300 North 222 255 3,100 -540 Descending Chicago Center
11:15AM 44.1342 -88.6108 16° North 195 224 2,900 -240 Descending Chicago Center
11:15AM 44.1594 -88.5922 28° Northeast 195 224 2,800 -780 Descending Minneapolis Center
11:16AM 44.2078 -88.5597 26° Northeast 194 223 1,700 -720 Descending Minneapolis Center
11:17AM 44.2372 -88.5328 33° Northeast 168 193 1,400 -300 Descending Minneapolis Center